Time;durP1;ratioP1;P1;durP2;ratioP2;P2;SDS_P1;SDS_P2;PMS_P1;PMS_P2;Temp;Humidity;BMP_temperature;BMP_pressure;BME280_temperature;BME280_humidity;BME280_pressure;Samples;Min_cycle;Max_cycle;Signal;HPM_P1;HPM_P2
2022/12/22 03:26:13;;;;;;;8.70;4.40;;;;;;;2.11;89.24;99749.11;25443;1330;3051775;-68
2022/12/22 03:28:42;;;;;;;6.20;3.20;;;;;;;1.99;89.52;99749.00;25449;1334;3026124;-67
2022/12/22 03:31:12;;;;;;;6.10;3.00;;;;;;;2.34;89.09;99744.79;25442;1333;3055417;-67
2022/12/22 03:33:40;;;;;;;6.10;3.60;;;;;;;2.79;86.62;99753.09;25436;1333;3026119;-66
2022/12/22 03:36:15;;;;;;;8.60;4.50;;;;;;;2.84;85.75;99755.21;25433;1334;3049801;-67
2022/12/22 03:38:44;;;;;;;6.90;3.90;;;;;;;2.81;85.50;99753.59;25456;1330;3025969;-68
2022/12/22 03:46:29;;;;;;;9.40;4.70;;;;;;;2.50;86.22;99750.64;25426;1333;3069161;-67
2022/12/22 03:46:49;;;;;;;8.80;4.80;;;;;;;2.29;88.10;99746.80;25458;1324;3056378;-67
2022/12/22 03:49:21;;;;;;;8.40;5.50;;;;;;;2.20;88.66;99747.18;25445;1324;3025701;-67
2022/12/22 03:51:50;;;;;;;7.70;3.40;;;;;;;2.15;89.19;99744.17;25445;1334;3049592;-67
2022/12/22 03:54:23;;;;;;;5.50;3.50;;;;;;;2.40;88.82;99746.91;25441;1324;3026108;-66
2022/12/22 03:56:52;;;;;;;7.70;4.60;;;;;;;3.09;86.49;99747.86;25455;1324;3026368;-67
2022/12/22 03:59:21;;;;;;;9.20;4.20;;;;;;;3.05;85.06;99751.05;25442;1332;3026189;-66
2022/12/22 04:01:51;;;;;;;9.40;5.10;;;;;;;3.02;85.23;99749.41;25443;1326;3055438;-66
2022/12/22 04:04:22;;;;;;;14.70;6.00;;;;;;;2.93;85.51;99745.30;25435;1325;3026028;-66
2022/12/22 04:06:52;;;;;;;13.80;6.20;;;;;;;2.82;86.01;99745.23;25446;1325;3028878;-67
2022/12/22 04:09:21;;;;;;;10.20;4.80;;;;;;;2.66;86.12;99740.43;25433;1331;3026457;-67
2022/12/22 04:14:39;;;;;;;8.70;3.80;;;;;;;2.47;87.71;99734.98;25438;1325;3051790;-68
2022/12/22 04:17:08;;;;;;;3.50;2.50;;;;;;;2.33;88.21;99741.54;25435;1332;3026264;-67
2022/12/22 04:19:37;;;;;;;4.70;2.60;;;;;;;2.58;88.49;99742.33;25447;1334;3026130;-67
2022/12/22 04:22:06;;;;;;;5.60;3.40;;;;;;;2.99;86.51;99738.92;25432;1326;3026501;-68
2022/12/22 04:24:35;;;;;;;8.80;3.80;;;;;;;2.91;85.71;99741.73;25439;1334;3050945;-68
2022/12/22 04:27:05;;;;;;;8.50;4.10;;;;;;;2.90;86.25;99734.14;25447;1330;3026243;-68
2022/12/22 04:29:33;;;;;;;8.60;4.90;;;;;;;2.77;85.98;99742.59;25459;1330;3052816;-68
2022/12/22 04:32:02;;;;;;;8.00;4.20;;;;;;;2.43;87.51;99744.25;25420;1334;3025905;-67
2022/12/22 04:34:32;;;;;;;8.40;4.60;;;;;;;2.42;87.57;99749.27;25461;1334;3050728;-67
2022/12/22 04:37:01;;;;;;;9.70;4.90;;;;;;;2.02;89.38;99746.87;25437;1331;3026231;-68
2022/12/22 04:39:30;;;;;;;8.10;4.30;;;;;;;2.03;89.77;99746.15;25441;1325;3056292;-68
2022/12/22 04:41:58;;;;;;;4.90;2.90;;;;;;;1.96;90.09;99750.45;25435;1324;3026362;-67
2022/12/22 04:44:27;;;;;;;5.90;3.20;;;;;;;2.14;90.12;99745.92;25447;1333;3049634;-67
2022/12/22 04:46:56;;;;;;;7.70;3.50;;;;;;;2.64;88.55;99745.32;25441;1334;3026041;-68
2022/12/22 04:49:25;;;;;;;6.20;3.70;;;;;;;2.50;87.68;99746.34;25421;1324;3067546;-67
2022/12/22 04:51:54;;;;;;;4.60;3.40;;;;;;;2.50;87.93;99744.94;25434;1323;3026565;-66
2022/12/22 04:54:23;;;;;;;8.60;4.20;;;;;;;2.46;88.20;99744.53;25449;1334;3049240;-67
2022/12/22 04:56:52;;;;;;;7.50;4.80;;;;;;;2.25;88.93;99745.68;25435;1327;3026257;-68
2022/12/22 04:59:21;;;;;;;6.90;4.20;;;;;;;2.22;89.64;99738.15;25439;1325;3052299;-67
2022/12/22 05:01:50;;;;;;;6.80;3.90;;;;;;;2.02;90.10;99745.13;25429;1330;3025800;-66
2022/12/22 05:04:19;;;;;;;6.00;3.00;;;;;;;2.01;90.57;99740.48;25423;1333;3050209;-68
2022/12/22 05:06:48;;;;;;;6.20;3.00;;;;;;;2.41;90.11;99746.71;25449;1323;3024927;-67
2022/12/22 05:09:20;;;;;;;6.00;3.10;;;;;;;2.74;87.79;99752.34;25409;1334;3053211;-67
2022/12/22 05:11:49;;;;;;;6.00;3.50;;;;;;;2.77;87.18;99750.04;25417;1324;3026950;-67
2022/12/22 05:14:18;;;;;;;8.40;3.50;;;;;;;2.70;86.78;99745.51;25437;1323;3051249;-67
2022/12/22 05:16:47;;;;;;;6.00;3.70;;;;;;;2.46;87.20;99746.43;25448;1331;3027527;-67
2022/12/22 05:19:16;;;;;;;6.40;3.40;;;;;;;2.19;88.16;99746.15;25438;1334;3056217;-67
2022/12/22 05:21:45;;;;;;;7.20;3.80;;;;;;;2.15;88.62;99751.44;25425;1334;3026203;-66
2022/12/22 05:24:14;;;;;;;6.40;3.50;;;;;;;1.97;88.90;99757.34;25439;1335;3048830;-66
2022/12/22 05:26:43;;;;;;;5.80;3.80;;;;;;;1.87;89.81;99759.77;25415;1330;3025572;-66
2022/12/22 05:29:12;;;;;;;5.20;2.80;;;;;;;1.68;90.50;99765.88;25427;1326;3068581;-68
2022/12/22 05:31:41;;;;;;;4.70;2.50;;;;;;;1.88;90.85;99762.17;25439;1335;3027320;-68
2022/12/22 05:34:11;;;;;;;6.50;3.70;;;;;;;2.37;88.35;99762.04;25426;1324;3027936;-68
2022/12/22 05:36:40;;;;;;;7.90;4.00;;;;;;;2.15;87.92;99770.45;25441;1334;3026173;-67
2022/12/22 05:39:11;;;;;;;7.10;3.70;;;;;;;1.92;88.46;99773.85;25434;1331;3049752;-67
2022/12/22 05:41:40;;;;;;;11.60;5.50;;;;;;;1.88;88.71;99772.22;25438;1333;3025623;-67
2022/12/22 05:44:09;;;;;;;11.50;6.00;;;;;;;1.63;89.28;99777.35;25426;1334;3069326;-67
2022/12/22 05:46:38;;;;;;;9.80;4.50;;;;;;;1.41;90.67;99781.38;25432;1335;3026842;-68
2022/12/22 05:49:07;;;;;;;8.30;4.40;;;;;;;1.35;91.45;99791.16;25441;1325;3047867;-67
2022/12/22 05:51:36;;;;;;;6.80;3.40;;;;;;;1.26;91.79;99790.63;25429;1331;3026907;-67
2022/12/22 05:54:05;;;;;;;7.10;3.40;;;;;;;1.59;91.42;99794.00;25431;1333;3051832;-66
2022/12/22 05:56:35;;;;;;;7.00;3.60;;;;;;;1.78;89.70;99806.27;25413;1325;3025868;-66
2022/12/22 05:59:04;;;;;;;5.60;3.20;;;;;;;2.03;88.30;99806.11;25423;1334;3026063;-67
2022/12/22 06:01:32;;;;;;;5.30;3.30;;;;;;;1.94;87.73;99810.44;25424;1337;3051573;-68
2022/12/22 06:04:01;;;;;;;3.70;2.60;;;;;;;1.70;88.54;99814.54;25443;1334;3026173;-69
2022/12/22 06:06:30;;;;;;;6.30;3.50;;;;;;;1.40;89.52;99820.60;25426;1331;3050536;-68
2022/12/22 06:09:00;;;;;;;6.20;3.20;;;;;;;1.32;90.38;99824.18;25433;1323;3025828;-66
2022/12/22 06:11:28;;;;;;;5.30;3.40;;;;;;;1.17;91.35;99830.81;25445;1339;3053258;-66
2022/12/22 06:13:58;;;;;;;3.60;1.80;;;;;;;1.18;92.08;99822.85;25411;1337;3025162;-66
2022/12/22 06:16:26;;;;;;;3.00;1.60;;;;;;;1.68;90.80;99818.54;25409;1337;3050379;-67
2022/12/22 06:18:56;;;;;;;6.50;2.90;;;;;;;2.19;89.11;99822.91;25441;1331;3026746;-67
2022/12/22 06:21:25;;;;;;;4.70;2.90;;;;;;;2.26;87.98;99831.92;25422;1337;3026514;-66
2022/12/22 06:23:54;;;;;;;5.70;3.30;;;;;;;2.37;87.37;99829.77;25435;1337;3051624;-66
2022/12/22 06:26:23;;;;;;;5.70;3.40;;;;;;;2.18;87.49;99831.55;25447;1340;3027657;-67
2022/12/22 06:28:53;;;;;;;5.60;3.50;;;;;;;1.80;89.28;99835.07;25427;1337;3025659;-67
2022/12/22 06:31:22;;;;;;;5.70;3.20;;;;;;;1.62;90.70;99825.55;25440;1337;3051888;-68
2022/12/22 06:33:51;;;;;;;7.20;3.70;;;;;;;1.59;91.49;99829.23;25429;1325;3025987;-71
2022/12/22 06:36:23;;;;;;;4.90;2.40;;;;;;;1.48;92.35;99829.95;25430;1330;3027620;-67
2022/12/22 06:38:52;;;;;;;4.10;2.30;;;;;;;1.78;92.41;99826.46;25451;1330;3026101;-72
2022/12/22 06:44:08;;;;;;;7.30;3.80;;;;;;;2.17;89.66;99825.02;25416;1331;3052134;-66
2022/12/22 06:46:38;;;;;;;6.00;3.70;;;;;;;2.09;89.97;99825.86;25424;1333;3025973;-67
2022/12/22 06:49:06;;;;;;;5.20;3.20;;;;;;;2.03;90.55;99818.39;25441;1334;3051747;-67
2022/12/22 06:51:35;;;;;;;4.80;3.20;;;;;;;1.87;91.00;99823.88;25402;1334;3025957;-66
2022/12/22 06:54:04;;;;;;;5.50;3.20;;;;;;;1.97;91.44;99815.20;25430;1323;3050047;-67
2022/12/22 06:56:35;;;;;;;7.00;3.20;;;;;;;1.69;92.39;99812.81;25452;1336;3027243;-72
2022/12/22 06:59:04;;;;;;;5.60;3.40;;;;;;;2.13;92.28;99800.38;25415;1330;3027530;-67
2022/12/22 07:01:34;;;;;;;8.60;3.90;;;;;;;2.47;90.35;99797.59;25442;1327;3051545;-68
2022/12/22 07:04:03;;;;;;;10.20;5.10;;;;;;;2.52;89.42;99802.14;25442;1337;3026399;-72
2022/12/22 07:06:32;;;;;;;9.10;4.90;;;;;;;2.38;90.02;99804.88;25446;1334;3056324;-69
2022/12/22 07:09:01;;;;;;;10.20;5.40;;;;;;;2.24;90.74;99798.25;25444;1327;3026482;-72
2022/12/22 07:11:31;;;;;;;13.80;6.40;;;;;;;2.06;91.26;99807.79;25442;1332;3049130;-67
2022/12/22 07:14:01;;;;;;;13.30;7.40;;;;;;;2.01;91.95;99808.23;25440;1330;3026382;-71
2022/12/22 07:16:30;;;;;;;9.30;4.60;;;;;;;1.94;92.36;99808.02;25441;1334;3025569;-68
2022/12/22 07:18:59;;;;;;;9.20;4.50;;;;;;;2.34;91.81;99814.45;25434;1337;3049283;-68
2022/12/22 07:21:28;;;;;;;8.30;5.20;;;;;;;2.78;89.24;99811.08;25440;1334;3026326;-67
2022/12/22 07:23:57;;;;;;;9.00;5.50;;;;;;;2.92;88.28;99813.00;25418;1337;3066519;-68
2022/12/22 07:26:26;;;;;;;8.20;4.70;;;;;;;2.72;87.83;99819.85;25429;1334;3027510;-70
2022/12/22 07:28:54;;;;;;;10.10;5.40;;;;;;;2.70;87.80;99824.05;25429;1338;3048834;-70
2022/12/22 07:31:23;;;;;;;8.90;5.80;;;;;;;2.61;88.42;99819.93;25432;1323;3026754;-70
2022/12/22 07:33:52;;;;;;;9.80;5.20;;;;;;;2.49;89.01;99815.70;25454;1335;3050297;-69
2022/12/22 07:36:21;;;;;;;9.60;5.90;;;;;;;2.51;89.03;99813.73;25443;1334;3025648;-70
2022/12/22 07:38:50;;;;;;;8.10;4.50;;;;;;;2.47;89.51;99814.36;25430;1332;3050126;-70
2022/12/22 07:44:08;;;;;;;11.90;5.60;;;;;;;3.50;85.97;99807.06;25475;1327;3053209;-65
2022/12/22 07:46:38;;;;;;;10.40;5.10;;;;;;;3.41;84.32;99802.45;25464;1332;3024634;-64
2022/12/22 07:51:56;;;;;;;12.40;7.00;;;;;;;3.20;85.16;99802.28;25413;1330;3052864;-66
2022/12/22 07:54:25;;;;;;;11.20;6.00;;;;;;;2.95;86.18;99807.73;25428;1333;3026585;-70
2022/12/22 07:56:55;;;;;;;11.70;6.30;;;;;;;2.89;86.51;99806.48;25440;1334;3025874;-68
2022/12/22 07:59:24;;;;;;;11.10;5.90;;;;;;;2.96;86.55;99802.17;25450;1334;3025788;-73
2022/12/22 08:01:53;;;;;;;13.60;6.80;;;;;;;2.72;87.61;99807.23;25428;1329;3051345;-68
2022/12/22 08:04:22;;;;;;;8.10;4.70;;;;;;;2.63;88.81;99804.84;25459;1325;3026396;-67
2022/12/22 08:06:51;;;;;;;11.00;4.80;;;;;;;3.12;87.76;99798.11;25444;1334;3052572;-69
2022/12/22 08:09:21;;;;;;;9.50;5.30;;;;;;;3.77;84.23;99808.77;25430;1334;3025124;-72
2022/12/22 08:11:50;;;;;;;10.70;5.50;;;;;;;3.87;83.21;99798.77;25442;1325;3052042;-73
2022/12/22 08:14:19;;;;;;;9.20;5.10;;;;;;;3.88;83.36;99789.41;25442;1329;3025504;-72
2022/12/22 08:16:49;;;;;;;10.10;5.80;;;;;;;3.70;83.15;99792.15;25458;1335;3055101;-67
2022/12/22 08:19:17;;;;;;;12.50;5.20;;;;;;;3.68;84.24;99791.67;25462;1329;3026110;-70
2022/12/22 08:21:47;;;;;;;10.20;5.80;;;;;;;3.80;83.04;99784.97;25449;1332;3025933;-72
2022/12/22 08:24:16;;;;;;;11.60;6.10;;;;;;;3.66;83.68;99789.67;25446;1334;3056490;-68
2022/12/22 08:26:45;;;;;;;11.00;6.50;;;;;;;3.47;84.82;99790.86;25450;1330;3026050;-70
2022/12/22 08:29:21;;;;;;;5.60;3.40;;;;;;;3.58;85.01;99798.20;25399;1336;3049314;-68
2022/12/22 08:31:50;;;;;;;9.40;4.00;;;;;;;3.97;84.28;99790.20;25427;1331;3056111;-67
2022/12/22 08:34:19;;;;;;;10.60;4.60;;;;;;;4.40;82.00;99788.61;25431;1337;3025922;-68
2022/12/22 08:36:50;;;;;;;9.70;5.20;;;;;;;4.44;80.95;99790.56;25440;1334;3048853;-74
2022/12/22 08:39:19;;;;;;;11.50;5.30;;;;;;;4.39;81.11;99788.11;25414;1334;3026585;-67
2022/12/22 08:41:51;;;;;;;14.10;5.80;;;;;;;4.27;81.64;99777.89;25444;1330;3026085;-71
2022/12/22 08:44:26;;;;;;;13.10;6.80;;;;;;;4.16;82.10;99784.81;25415;1331;3049895;-71
2022/12/22 08:46:56;;;;;;;11.00;5.50;;;;;;;3.87;83.15;99770.55;25436;1334;3055898;-65
2022/12/22 08:49:25;;;;;;;10.50;6.10;;;;;;;3.80;84.08;99765.36;25429;1334;3026367;-64
2022/12/22 08:51:54;;;;;;;11.50;5.90;;;;;;;3.91;84.08;99763.34;25461;1332;3025193;-72
2022/12/22 08:54:23;;;;;;;12.90;5.90;;;;;;;3.93;83.75;99768.30;25447;1327;3055520;-72
2022/12/22 08:56:52;;;;;;;8.10;4.10;;;;;;;3.93;84.33;99762.24;25439;1334;3026598;-66
2022/12/22 08:59:21;;;;;;;9.30;5.80;;;;;;;4.41;82.73;99759.09;25432;1330;3049541;-67
2022/12/22 09:01:50;;;;;;;11.40;5.90;;;;;;;4.89;80.24;99758.81;25432;1337;3026238;-67
2022/12/22 09:04:20;;;;;;;12.40;6.10;;;;;;;5.02;79.02;99756.48;25434;1326;3069207;-70
2022/12/22 09:06:50;;;;;;;10.70;5.20;;;;;;;4.85;79.80;99757.88;25434;1332;3025908;-71
2022/12/22 09:09:20;;;;;;;10.10;5.60;;;;;;;4.60;80.99;99758.85;25431;1333;3026369;-69
2022/12/22 09:11:50;;;;;;;9.70;5.30;;;;;;;4.60;81.18;99754.89;25437;1330;3026565;-71
2022/12/22 09:14:18;;;;;;;10.70;5.00;;;;;;;4.72;80.71;99753.11;25441;1334;3050329;-73
2022/12/22 09:16:49;;;;;;;11.20;5.70;;;;;;;4.56;81.66;99752.04;25451;1334;3026105;-70
2022/12/22 09:19:18;;;;;;;12.80;5.70;;;;;;;4.47;81.87;99753.71;25443;1334;3026559;-68
2022/12/22 09:21:47;;;;;;;12.10;6.00;;;;;;;4.52;82.06;99756.16;25435;1325;3026473;-68
2022/12/22 09:24:16;;;;;;;11.50;5.40;;;;;;;4.32;82.63;99753.80;25448;1334;3055198;-69
2022/12/22 09:26:45;;;;;;;6.00;3.30;;;;;;;4.34;82.71;99756.33;25434;1333;3025873;-67
2022/12/22 09:29:14;;;;;;;11.60;4.10;;;;;;;4.96;81.27;99751.63;25421;1331;3049916;-72
2022/12/22 09:31:44;;;;;;;7.60;4.00;;;;;;;5.25;78.89;99752.55;25419;1339;3026214;-73
2022/12/22 09:34:13;;;;;;;8.00;4.40;;;;;;;5.02;79.23;99742.21;25424;1331;3026336;-66
2022/12/22 09:36:42;;;;;;;11.40;4.90;;;;;;;4.86;79.93;99742.57;25422;1331;3049976;-73
2022/12/22 09:39:11;;;;;;;8.00;4.20;;;;;;;5.04;79.75;99725.48;25412;1334;3026549;-68
2022/12/22 09:41:49;;;;;;;13.50;5.10;;;;;;;4.78;80.25;99736.77;25425;1337;3068414;-72
2022/12/22 09:44:30;;;;;;;9.40;5.30;;;;;;;4.48;81.84;99736.50;25388;1334;3049999;-75
2022/12/22 09:47:01;;;;;;;9.80;5.10;;;;;;;4.43;82.23;99732.48;25418;1334;3057470;-71
2022/12/22 09:49:29;;;;;;;8.40;4.90;;;;;;;4.45;82.21;99731.39;25420;1334;3025649;-73
2022/12/22 09:51:59;;;;;;;9.50;5.50;;;;;;;4.45;82.73;99730.01;25428;1340;3025807;-68
2022/12/22 09:54:28;;;;;;;5.40;3.60;;;;;;;4.19;83.41;99730.27;25418;1323;3055521;-67
2022/12/22 09:56:57;;;;;;;5.60;3.10;;;;;;;4.45;83.65;99733.63;25432;1334;3026315;-71
2022/12/22 09:59:27;;;;;;;8.30;4.20;;;;;;;5.10;81.41;99731.70;25439;1329;3048725;-71
2022/12/22 10:01:59;;;;;;;9.20;4.90;;;;;;;4.85;80.68;99737.05;25431;1334;3028014;-69
2022/12/22 10:04:34;;;;;;;12.80;5.10;;;;;;;4.86;81.15;99734.40;25426;1333;3025946;-71
2022/12/22 10:07:15;;;;;;;9.00;5.10;;;;;;;4.79;80.79;99732.21;25425;1329;3052733;-73
2022/12/22 10:09:45;;;;;;;13.30;5.30;;;;;;;4.44;82.33;99731.07;25384;1337;3052116;-67
2022/12/22 10:12:16;;;;;;;10.60;5.40;;;;;;;4.39;82.95;99732.96;25432;1332;3025323;-72
2022/12/22 10:14:46;;;;;;;12.20;5.50;;;;;;;4.43;82.82;99736.13;25417;1325;3052983;-71
2022/12/22 10:17:21;;;;;;;9.40;5.00;;;;;;;4.37;83.26;99722.61;25402;1334;3025008;-65
2022/12/22 10:19:52;;;;;;;13.60;6.10;;;;;;;4.22;83.77;99731.55;25434;1325;3051262;-69
2022/12/22 10:22:48;;;;;;;5.80;3.70;;;;;;;4.35;83.66;99727.00;25427;1324;3026794;-72
2022/12/22 10:25:30;;;;;;;10.40;4.60;;;;;;;4.82;82.28;99726.39;25416;1334;3069081;-67
2022/12/22 10:28:01;;;;;;;12.00;5.20;;;;;;;5.49;79.17;99722.23;25418;1332;3049868;-67
2022/12/22 10:30:32;;;;;;;9.20;5.10;;;;;;;5.23;79.21;99728.84;25425;1334;3025420;-68
2022/12/22 10:33:09;;;;;;;11.30;4.60;;;;;;;4.94;79.97;99731.02;25414;1331;3026390;-73
2022/12/22 10:35:55;;;;;;;10.50;5.00;;;;;;;4.90;80.71;99720.40;25432;1334;3051339;-66
2022/12/22 10:38:34;;;;;;;8.80;4.80;;;;;;;4.82;80.96;99720.33;25383;1334;3052870;-71
2022/12/22 10:41:17;;;;;;;10.20;5.50;;;;;;;4.75;81.17;99717.27;25455;1334;3052359;-73
2022/12/22 10:43:50;;;;;;;12.70;5.20;;;;;;;4.79;81.28;99716.59;25403;1334;3049601;-68
2022/12/22 10:46:29;;;;;;;;;;;;;;;4.73;81.58;99714.38;25388;1333;3068528;-68
2022/12/22 10:49:09;;;;;;;10.80;6.10;;;;;;;4.51;81.89;99713.52;25448;1335;3049219;-70
2022/12/22 10:51:39;;;;;;;7.80;3.50;;;;;;;4.45;83.41;99705.01;25440;1334;3056046;-69
2022/12/22 10:54:08;;;;;;;9.00;4.20;;;;;;;4.97;81.41;99704.73;25433;1334;3026048;-70
2022/12/22 10:56:37;;;;;;;9.70;4.50;;;;;;;5.34;79.61;99702.05;25454;1323;3026136;-76
2022/12/22 10:59:18;;;;;;;9.90;4.70;;;;;;;5.32;79.06;99701.44;25418;1334;3056438;-71
2022/12/22 11:01:48;;;;;;;9.30;4.60;;;;;;;4.99;79.59;99705.16;25443;1335;3053007;-69
2022/12/22 11:04:22;;;;;;;9.90;4.70;;;;;;;4.88;80.49;99698.25;25437;1333;3026476;-70
2022/12/22 11:06:51;;;;;;;7.60;4.20;;;;;;;4.65;81.70;99695.20;25445;1333;3055968;-69
2022/12/22 11:09:20;;;;;;;11.00;4.40;;;;;;;4.54;82.06;99694.84;25425;1333;3026464;-70
2022/12/22 11:11:55;;;;;;;9.50;5.10;;;;;;;4.65;82.00;99695.17;25452;1332;3024954;-75
2022/12/22 11:14:34;;;;;;;11.40;4.80;;;;;;;4.59;82.22;99693.48;25420;1334;3051396;-72
2022/12/22 11:17:21;;;;;;;8.20;4.60;;;;;;;4.54;82.33;99691.21;25424;1326;3052394;-69
2022/12/22 11:20:20;;;;;;;7.00;3.20;;;;;;;4.63;82.29;99686.42;25434;1334;3047749;-69
2022/12/22 11:22:55;;;;;;;9.50;3.80;;;;;;;5.10;80.70;99687.43;25399;1333;3070145;-68
2022/12/22 11:25:27;;;;;;;11.80;4.80;;;;;;;5.42;79.11;99683.56;25418;1334;3049066;-71
2022/12/22 11:28:11;;;;;;;10.30;5.20;;;;;;;5.33;79.03;99679.55;25431;1333;3025176;-69
2022/12/22 11:30:49;;;;;;;12.10;5.20;;;;;;;5.21;79.24;99677.86;25441;1334;3052776;-70
2022/12/22 11:33:28;;;;;;;8.10;4.40;;;;;;;5.25;79.46;99675.63;25403;1327;3052278;-69
2022/12/22 11:36:05;;;;;;;12.40;4.80;;;;;;;5.03;79.54;99674.48;25427;1334;3051340;-67
2022/12/22 11:38:40;;;;;;;8.10;4.70;;;;;;;4.92;80.43;99678.67;25398;1324;3052505;-68
2022/12/22 11:41:15;;;;;;;8.10;3.80;;;;;;;4.79;81.06;99673.05;25439;1331;3049833;-68
2022/12/22 11:44:21;;;;;;;7.10;4.60;;;;;;;4.76;81.23;99670.19;25426;1333;3068923;-69
2022/12/22 11:47:14;;;;;;;12.50;5.10;;;;;;;4.67;81.55;99673.44;25438;1331;3049790;-72
2022/12/22 11:49:50;;;;;;;7.90;3.80;;;;;;;4.65;81.75;99672.81;25434;1334;3057272;-69
2022/12/22 11:52:34;;;;;;;5.30;2.60;;;;;;;4.81;81.07;99665.15;25426;1332;3052239;-71
2022/12/22 11:55:19;;;;;;;6.90;3.40;;;;;;;5.34;79.47;99660.02;25435;1334;3054190;-73
2022/12/22 11:58:00;;;;;;;8.90;3.90;;;;;;;5.54;77.70;99658.11;25424;1334;3050808;-73
2022/12/22 12:00:34;;;;;;;8.00;4.30;;;;;;;5.63;77.31;99653.61;25437;1326;3051275;-65
2022/12/22 12:03:18;;;;;;;6.30;3.70;;;;;;;5.59;77.29;99655.83;25397;1330;3026258;-71
2022/12/22 12:06:08;;;;;;;8.60;4.00;;;;;;;5.37;77.96;99650.55;25448;1333;3068586;-65
2022/12/22 12:08:44;;;;;;;8.90;4.30;;;;;;;5.45;77.64;99645.39;25446;1334;3050355;-70
2022/12/22 12:11:20;;;;;;;8.50;4.10;;;;;;;5.27;78.17;99639.80;25416;1333;3057049;-66
2022/12/22 12:14:15;;;;;;;10.80;5.10;;;;;;;5.18;78.12;99643.92;25427;1327;3051111;-75
2022/12/22 12:16:47;;;;;;;7.40;4.30;;;;;;;5.10;78.71;99637.95;25421;1334;3052996;-73
2022/12/22 12:19:21;;;;;;;7.50;4.10;;;;;;;5.04;79.00;99633.98;25438;1326;3025582;-68
2022/12/22 12:21:55;;;;;;;10.90;4.10;;;;;;;5.02;78.99;99634.77;25438;1334;3051002;-74
2022/12/22 12:24:27;;;;;;;;;;;;;;;4.82;79.79;99637.68;25443;1332;3049695;-70
2022/12/22 12:27:06;;;;;;;9.00;3.40;;;;;;;4.80;80.15;99633.95;25430;1332;3026635;-71
2022/12/22 12:30:01;;;;;;;7.30;3.80;;;;;;;4.88;79.78;99636.80;25429;1327;3049024;-67
2022/12/22 12:32:37;;;;;;;5.90;2.60;;;;;;;4.71;80.64;99644.31;25434;1333;3056482;-69
2022/12/22 12:35:41;;;;;;;5.80;2.70;;;;;;;5.27;79.31;99639.06;25400;1333;3051832;-72
2022/12/22 12:38:25;;;;;;;9.30;3.50;;;;;;;6.00;76.06;99637.25;25429;1334;3052316;-69
2022/12/22 12:41:12;;;;;;;;;;;;;;;5.87;75.96;99639.84;25438;1334;3051565;-71
2022/12/22 12:43:41;;;;;;;6.90;4.00;;;;;;;5.71;76.18;99643.72;25434;1334;3052294;-70
2022/12/22 12:46:47;;;;;;;9.00;3.90;;;;;;;5.46;77.19;99640.48;25400;1334;3025745;-67
2022/12/22 12:49:35;;;;;;;9.70;4.70;;;;;;;5.25;77.93;99638.63;25439;1334;3052181;-66
2022/12/22 12:52:07;;;;;;;13.00;5.10;;;;;;;4.97;79.09;99642.92;25452;1330;3052536;-68
2022/12/22 12:54:37;;;;;;;11.90;5.40;;;;;;;4.96;79.53;99642.45;25438;1317;3026620;-71
2022/12/22 12:57:06;;;;;;;13.70;5.50;;;;;;;5.10;79.13;99647.50;25435;1327;3025142;-68
2022/12/22 12:59:41;;;;;;;11.10;5.50;;;;;;;4.89;79.67;99639.71;25417;1327;3025888;-74
2022/12/22 13:02:29;;;;;;;11.60;5.40;;;;;;;4.80;80.02;99645.23;25437;1332;3048514;-67
2022/12/22 13:05:16;;;;;;;9.40;4.40;;;;;;;4.82;80.15;99640.31;25420;1333;3068197;-72
2022/12/22 13:08:06;;;;;;;11.20;4.70;;;;;;;4.62;81.13;99644.78;25451;1327;3049371;-65
2022/12/22 13:10:59;;;;;;;6.80;3.00;;;;;;;4.69;81.16;99650.11;25431;1333;3055502;-71
2022/12/22 13:13:28;;;;;;;7.40;3.70;;;;;;;5.32;79.02;99646.00;25342;1340;3052400;-74
2022/12/22 13:16:00;;;;;;;11.20;4.90;;;;;;;5.79;76.95;99643.27;25435;1334;3026408;-66
2022/12/22 13:18:32;;;;;;;11.10;5.50;;;;;;;5.98;75.80;99643.92;25433;1334;3056560;-66
2022/12/22 13:21:04;;;;;;;14.60;5.80;;;;;;;5.56;77.09;99645.16;25429;1330;3026718;-69
2022/12/22 13:23:35;;;;;;;10.80;5.30;;;;;;;5.47;77.42;99644.27;25454;1332;3026138;-69
2022/12/22 13:26:09;;;;;;;12.70;5.20;;;;;;;5.47;77.37;99651.77;25420;1335;3027112;-68
2022/12/22 13:28:40;;;;;;;8.80;4.80;;;;;;;5.33;78.08;99652.06;25407;1337;3054692;-67
2022/12/22 13:31:39;;;;;;;10.00;5.30;;;;;;;5.06;79.20;99650.98;25413;1334;3026795;-70
2022/12/22 13:34:35;;;;;;;7.40;4.40;;;;;;;4.89;80.05;99660.56;25431;1331;3069951;-68
2022/12/22 13:37:11;;;;;;;7.30;4.60;;;;;;;4.85;80.52;99661.39;25419;1333;3049777;-70
2022/12/22 13:39:40;;;;;;;10.20;4.90;;;;;;;4.70;81.27;99659.27;25426;1324;3057044;-65
2022/12/22 13:42:10;;;;;;;15.20;5.90;;;;;;;4.61;81.59;99662.36;25420;1326;3026148;-64
2022/12/22 13:44:39;;;;;;;10.10;4.10;;;;;;;4.56;82.24;99664.27;25392;1333;3049416;-65
2022/12/22 13:47:12;;;;;;;11.20;4.80;;;;;;;4.98;81.34;99656.77;25403;1328;3026988;-72
2022/12/22 13:49:40;;;;;;;17.60;8.70;;;;;;;5.40;79.05;99651.83;25389;1340;3068552;-65
2022/12/22 13:52:12;;;;;;;17.70;9.40;;;;;;;5.48;78.72;99651.70;25417;1328;3026633;-69
2022/12/22 16:57:20;;;;;;;7.50;3.30;;;;;;;3.08;89.41;99601.81;30846;1341;3012891;-64
2022/12/22 16:59:49;;;;;;;5.40;3.40;;;;;;;3.85;86.92;99598.49;24513;1342;3025199;-66
2022/12/22 17:02:22;;;;;;;11.40;3.90;;;;;;;4.51;82.77;99597.11;24429;1337;3025686;-63
2022/12/22 17:04:51;;;;;;;10.40;4.20;;;;;;;4.66;81.60;99587.77;24547;1335;3029402;-64
2022/12/22 17:07:20;;;;;;;9.80;5.10;;;;;;;4.50;81.40;99587.80;24471;1335;3026166;-63
2022/12/22 17:09:51;;;;;;;9.80;5.50;;;;;;;4.52;81.39;99584.07;23825;1331;3049943;-63
2022/12/22 17:12:23;;;;;;;8.70;4.60;;;;;;;4.35;81.56;99583.09;24536;1323;3056022;-61
2022/12/22 17:14:52;;;;;;;9.80;4.30;;;;;;;4.26;82.15;99589.27;24506;1337;3026498;-64
2022/12/22 17:17:22;;;;;;;11.40;5.70;;;;;;;4.12;82.70;99589.90;24527;1337;3027985;-63
2022/12/22 17:19:51;;;;;;;7.50;3.20;;;;;;;4.06;83.17;99585.56;24544;1328;3026525;-63
2022/12/22 17:22:30;;;;;;;13.00;3.70;;;;;;;4.63;81.66;99586.30;24515;1330;3028818;-62
2022/12/22 17:25:01;;;;;;;8.70;4.40;;;;;;;5.02;79.10;99585.98;24535;1335;3052801;-63
2022/12/22 17:27:30;;;;;;;10.00;4.60;;;;;;;5.12;78.57;99586.84;24503;1321;3026102;-63
2022/12/22 17:30:02;;;;;;;10.00;4.80;;;;;;;4.98;78.92;99584.38;24540;1331;3028309;-60
2022/12/22 17:32:31;;;;;;;8.90;4.50;;;;;;;4.91;79.25;99584.29;24545;1326;3026639;-61
2022/12/22 17:35:01;;;;;;;13.20;4.70;;;;;;;4.73;79.71;99580.58;24499;1321;3026027;-64
2022/12/22 17:37:31;;;;;;;14.30;5.80;;;;;;;4.68;80.20;99580.77;24545;1332;3026896;-62
2022/12/22 17:40:00;;;;;;;12.90;5.40;;;;;;;4.50;80.84;99581.70;24489;1331;3028125;-62
2022/12/22 17:42:30;;;;;;;14.00;4.90;;;;;;;4.38;81.48;99583.84;24503;1327;3068575;-62
2022/12/22 17:45:00;;;;;;;7.70;2.70;;;;;;;4.45;81.66;99579.80;24520;1334;3026631;-62
2022/12/22 17:47:31;;;;;;;8.60;3.50;;;;;;;4.84;80.69;99580.38;24515;1331;3028744;-62
2022/12/22 17:49:59;;;;;;;10.30;4.60;;;;;;;5.21;78.98;99580.94;24568;1331;3026447;-62
2022/12/22 17:52:29;;;;;;;10.70;4.10;;;;;;;5.34;77.96;99581.50;24531;1321;3028619;-63
2022/12/22 17:54:58;;;;;;;8.80;4.40;;;;;;;5.21;78.24;99583.73;24525;1328;3056704;-61
2022/12/22 17:57:32;;;;;;;9.00;4.10;;;;;;;5.10;78.69;99584.80;24533;1325;3028026;-62
2022/12/22 18:00:02;;;;;;;7.90;4.40;;;;;;;4.90;79.53;99586.04;24541;1331;3050337;-64
2022/12/22 18:02:40;;;;;;;12.10;5.00;;;;;;;4.85;80.14;99588.30;24644;1327;3055939;-63
2022/12/22 18:05:16;;;;;;;10.60;4.60;;;;;;;4.79;80.21;99591.63;24541;1321;3051522;-62
2022/12/22 18:07:44;;;;;;;6.90;3.80;;;;;;;4.63;81.14;99586.47;24521;1321;3028364;-63
2022/12/22 18:10:23;;;;;;;7.80;4.50;;;;;;;4.61;81.21;99584.45;24515;1327;3027150;-65
2022/12/22 18:12:53;;;;;;;5.20;2.70;;;;;;;4.51;81.88;99592.60;24587;1327;3051029;-65
2022/12/22 18:15:23;;;;;;;4.90;2.70;;;;;;;5.07;80.48;99583.36;24548;1329;3025921;-64
2022/12/22 18:17:52;;;;;;;6.80;3.20;;;;;;;5.57;77.84;99583.92;24489;1329;3025920;-64
2022/12/22 18:20:25;;;;;;;6.30;3.50;;;;;;;5.63;77.40;99584.06;24548;1321;3027889;-65
2022/12/22 18:22:55;;;;;;;9.00;4.60;;;;;;;5.25;77.89;99584.09;24587;1331;3052062;-63
2022/12/22 18:25:28;;;;;;;10.60;4.10;;;;;;;5.07;78.96;99579.22;24537;1330;3026838;-64
2022/12/22 18:27:58;;;;;;;7.70;4.40;;;;;;;5.05;79.14;99583.42;24521;1331;3052788;-63
2022/12/22 18:30:28;;;;;;;11.50;5.20;;;;;;;4.92;79.56;99585.11;24560;1327;3025759;-64